createdAt,value
2023-07-25T00:01:07.762Z,14.63
2023-07-25T00:03:35.373Z,11.60
2023-07-25T00:06:04.261Z,11.77
2023-07-25T00:08:32.508Z,11.20
2023-07-25T00:11:00.287Z,10.65
2023-07-25T00:13:28.005Z,12.85
2023-07-25T00:15:55.642Z,13.00
2023-07-25T00:18:23.198Z,12.07
2023-07-25T00:20:50.772Z,11.32
2023-07-25T00:23:18.446Z,11.45
2023-07-25T00:25:46.087Z,9.23
2023-07-25T00:28:13.878Z,8.57
2023-07-25T00:30:41.439Z,8.32
2023-07-25T00:33:09.042Z,9.63
2023-07-25T00:35:36.675Z,12.02
2023-07-25T00:38:06.365Z,12.52
2023-07-25T00:40:33.980Z,11.20
2023-07-25T00:43:06.760Z,9.20
2023-07-25T00:45:34.361Z,8.60
2023-07-25T00:48:01.940Z,9.55
2023-07-25T00:50:29.618Z,7.00
2023-07-25T00:52:59.948Z,10.50
2023-07-25T00:55:29.140Z,8.35
2023-07-25T00:57:56.800Z,7.05
2023-07-25T01:00:24.419Z,8.45
2023-07-25T01:02:55.409Z,8.02
2023-07-25T01:05:23.739Z,8.80
2023-07-25T01:07:51.309Z,7.20
2023-07-25T01:10:19.058Z,7.38
2023-07-25T01:12:46.640Z,7.75
2023-07-25T01:15:14.215Z,8.20
2023-07-25T01:17:41.906Z,8.00
2023-07-25T01:20:10.194Z,7.07
2023-07-25T01:22:38.569Z,9.52
2023-07-25T01:25:06.459Z,6.97
2023-07-25T01:27:34.127Z,6.70
2023-07-25T01:30:01.624Z,7.10
2023-07-25T01:32:29.383Z,7.97
2023-07-25T01:34:56.979Z,6.68
2023-07-25T01:37:24.530Z,9.43
2023-07-25T01:39:52.447Z,9.02
2023-07-25T01:42:20.251Z,7.95
2023-07-25T01:44:47.819Z,6.43
2023-07-25T01:47:15.521Z,9.38
2023-07-25T01:49:43.047Z,7.40
2023-07-25T01:52:10.592Z,8.55
2023-07-25T01:54:38.260Z,8.00
2023-07-25T01:57:06.488Z,7.32
2023-07-25T01:59:34.182Z,8.52
2023-07-25T02:02:02.271Z,8.43
2023-07-25T02:04:29.881Z,7.38
2023-07-25T02:06:57.436Z,7.90
2023-07-25T02:09:25.048Z,7.35
2023-07-25T02:11:52.656Z,7.68
2023-07-25T02:14:20.195Z,7.40
2023-07-25T02:16:48.240Z,7.90
2023-07-25T02:19:15.982Z,8.10
2023-07-25T02:21:43.540Z,8.45
2023-07-25T02:24:11.294Z,8.35
2023-07-25T02:26:40.048Z,8.02
2023-07-25T02:29:07.636Z,7.22
2023-07-25T02:31:35.617Z,7.13
2023-07-25T02:34:03.605Z,7.88
2023-07-25T02:36:31.253Z,8.23
2023-07-25T02:38:58.873Z,10.93
2023-07-25T02:41:26.547Z,8.68
2023-07-25T02:43:54.103Z,7.20
2023-07-25T02:46:21.786Z,9.27
2023-07-25T02:48:49.393Z,8.25
2023-07-25T02:51:16.950Z,8.77
2023-07-25T02:53:44.618Z,9.65
2023-07-25T02:56:12.316Z,8.82
2023-07-25T02:58:39.963Z,7.75
2023-07-25T03:01:07.674Z,10.27
2023-07-25T03:03:35.298Z,8.02
2023-07-25T03:06:03.292Z,9.40
2023-07-25T03:08:30.962Z,8.38
2023-07-25T03:10:58.546Z,8.98
2023-07-25T03:13:26.141Z,8.15
2023-07-25T03:15:53.785Z,8.43
2023-07-25T03:18:21.323Z,9.40
2023-07-25T03:20:48.925Z,8.18
2023-07-25T03:23:16.486Z,8.05
2023-07-25T03:25:44.098Z,7.63
2023-07-25T03:28:11.700Z,9.02
2023-07-25T03:30:39.344Z,8.07
2023-07-25T03:33:08.627Z,9.60
2023-07-25T03:35:36.247Z,7.68
2023-07-25T03:38:03.893Z,9.05
2023-07-25T03:40:31.468Z,11.00
2023-07-25T03:42:58.988Z,11.98
2023-07-25T03:45:26.638Z,8.35
2023-07-25T03:47:54.212Z,8.70
2023-07-25T03:50:21.824Z,9.23
2023-07-25T03:52:49.375Z,9.65
2023-07-25T03:55:17.064Z,10.05
2023-07-25T03:57:44.823Z,9.57
2023-07-25T04:00:12.779Z,8.32
2023-07-25T04:02:40.424Z,9.95
2023-07-25T04:05:09.138Z,10.52
2023-07-25T04:07:36.795Z,10.00
2023-07-25T04:10:04.792Z,9.20
2023-07-25T04:12:32.310Z,10.40
2023-07-25T04:15:01.505Z,8.05
2023-07-25T04:17:29.124Z,9.35
2023-07-25T04:19:56.727Z,10.15
2023-07-25T04:22:24.404Z,9.30
2023-07-25T04:24:52.046Z,9.10
2023-07-25T04:27:19.896Z,9.48
2023-07-25T04:29:47.448Z,8.77
2023-07-25T04:32:15.140Z,10.98
2023-07-25T04:34:42.844Z,10.20
2023-07-25T04:37:10.406Z,11.27
2023-07-25T04:39:37.915Z,9.73
2023-07-25T04:42:05.635Z,10.25
2023-07-25T04:44:33.298Z,10.75
2023-07-25T04:47:00.835Z,8.35
2023-07-25T04:49:28.470Z,9.20
2023-07-25T04:51:56.039Z,11.85
2023-07-25T04:54:23.574Z,10.20
2023-07-25T04:56:54.257Z,10.20
2023-07-25T04:59:21.931Z,10.65
2023-07-25T05:01:49.567Z,10.77
2023-07-25T05:04:17.140Z,10.45
2023-07-25T05:06:44.822Z,10.00
2023-07-25T05:09:12.409Z,11.10
2023-07-25T05:11:40.754Z,8.77
2023-07-25T05:14:08.344Z,10.05
2023-07-25T05:16:35.875Z,9.45
2023-07-25T05:19:03.522Z,9.32
2023-07-25T05:21:31.598Z,9.52
2023-07-25T05:23:59.476Z,9.43
2023-07-25T05:26:27.067Z,10.18
2023-07-25T05:28:55.002Z,8.45
2023-07-25T05:31:22.569Z,9.95
2023-07-25T05:33:50.129Z,8.90
2023-07-25T05:36:18.897Z,9.23
2023-07-25T05:38:46.434Z,9.35
2023-07-25T05:41:14.057Z,9.18
2023-07-25T05:43:41.722Z,9.27
2023-07-25T05:46:10.830Z,10.43
2023-07-25T05:48:38.606Z,11.27
2023-07-25T05:51:06.252Z,10.27
2023-07-25T05:53:34.157Z,10.52
2023-07-25T05:56:01.701Z,8.15
2023-07-25T05:58:29.970Z,9.82
2023-07-25T06:00:57.592Z,9.98
2023-07-25T06:03:25.188Z,10.63
2023-07-25T06:05:52.988Z,10.55
2023-07-25T06:08:20.759Z,10.45
2023-07-25T06:10:50.966Z,11.43
2023-07-25T06:13:18.653Z,10.80
2023-07-25T06:15:46.215Z,11.00
2023-07-25T06:18:13.746Z,10.73
2023-07-25T06:20:41.398Z,9.52
2023-07-25T06:23:09.088Z,11.43
2023-07-25T06:25:36.725Z,10.70
2023-07-25T06:28:06.691Z,11.38
2023-07-25T06:30:34.351Z,9.93
2023-07-25T06:33:01.994Z,10.13
2023-07-25T06:35:29.691Z,9.82
2023-07-25T06:37:57.280Z,9.05
2023-07-25T06:40:25.222Z,9.43
2023-07-25T06:42:52.799Z,10.80
2023-07-25T06:45:20.388Z,9.93
2023-07-25T06:47:47.969Z,10.25
2023-07-25T06:50:15.577Z,9.35
2023-07-25T06:52:43.071Z,9.82
2023-07-25T06:55:10.720Z,11.23
2023-07-25T06:57:38.504Z,10.60
2023-07-25T07:00:06.442Z,8.70
2023-07-25T07:02:34.226Z,11.02
2023-07-25T07:05:08.683Z,8.60
2023-07-25T07:07:43.128Z,8.82
2023-07-25T07:10:10.895Z,10.25
2023-07-25T07:12:38.454Z,10.02
2023-07-25T07:15:06.213Z,9.50
2023-07-25T07:17:34.163Z,12.10
2023-07-25T07:20:02.459Z,10.23
2023-07-25T07:22:29.998Z,9.10
2023-07-25T07:24:57.831Z,9.15
2023-07-25T07:27:25.652Z,8.70
2023-07-25T07:29:56.498Z,8.68
2023-07-25T07:32:24.168Z,8.05
2023-07-25T07:34:51.945Z,10.30
2023-07-25T07:37:20.271Z,9.80
2023-07-25T07:39:48.099Z,10.63
2023-07-25T07:42:15.652Z,12.07
2023-07-25T07:44:43.518Z,10.25
2023-07-25T07:47:11.092Z,11.88
2023-07-25T07:49:38.676Z,9.88
2023-07-25T07:52:15.753Z,11.27
2023-07-25T07:54:47.573Z,9.07
2023-07-25T07:57:18.194Z,12.23
2023-07-25T07:59:46.033Z,11.30
2023-07-25T08:02:13.645Z,13.45
2023-07-25T08:04:41.753Z,12.38
2023-07-25T08:07:09.449Z,11.52
2023-07-25T08:09:37.122Z,11.00
2023-07-25T08:12:05.281Z,12.30
2023-07-25T08:14:32.842Z,11.85
2023-07-25T08:17:03.529Z,12.85
2023-07-25T08:19:31.059Z,10.60
2023-07-25T08:21:58.605Z,11.13
2023-07-25T08:24:26.631Z,9.85
2023-07-25T08:26:54.174Z,10.73
2023-07-25T08:29:22.846Z,11.40
2023-07-25T08:31:50.592Z,10.38
2023-07-25T08:34:18.195Z,9.50
2023-07-25T08:36:45.758Z,10.57
2023-07-25T08:39:13.647Z,9.82
2023-07-25T08:41:44.786Z,12.15
2023-07-25T08:44:13.685Z,9.82
2023-07-25T08:46:43.205Z,10.75
2023-07-25T08:49:12.561Z,11.27
2023-07-25T08:51:43.197Z,9.95
2023-07-25T08:54:17.246Z,9.50
2023-07-25T08:56:46.403Z,11.57
2023-07-25T08:59:14.674Z,11.00
2023-07-25T09:01:42.439Z,10.85
2023-07-25T09:04:11.279Z,10.48
2023-07-25T09:06:38.866Z,10.55
2023-07-25T09:09:06.914Z,11.05
2023-07-25T09:11:37.545Z,10.35
2023-07-25T09:14:05.318Z,10.27
2023-07-25T09:16:34.511Z,10.43
2023-07-25T09:19:02.264Z,10.75
2023-07-25T09:21:30.236Z,10.80
2023-07-25T09:24:01.880Z,11.90
2023-07-25T09:26:30.451Z,11.77
2023-07-25T09:29:00.900Z,10.55
2023-07-25T09:31:29.641Z,10.38
2023-07-25T09:33:57.860Z,11.18
2023-07-25T09:36:25.547Z,11.93
2023-07-25T09:38:55.933Z,13.00
2023-07-25T09:41:24.638Z,9.93
2023-07-25T09:43:53.029Z,11.57
2023-07-25T09:46:21.079Z,12.30
2023-07-25T09:48:52.544Z,11.95
2023-07-25T09:51:20.369Z,10.95
2023-07-25T09:53:52.786Z,11.85
2023-07-25T09:56:24.381Z,14.27
2023-07-25T09:59:06.343Z,13.07
2023-07-25T10:01:35.534Z,12.38
2023-07-25T10:04:03.997Z,10.70
2023-07-25T10:06:33.288Z,13.02
2023-07-25T10:09:01.189Z,12.60
2023-07-25T10:11:30.135Z,10.27
2023-07-25T10:13:58.329Z,11.82
2023-07-25T10:16:26.987Z,10.68
2023-07-25T10:18:56.305Z,10.85
2023-07-25T10:21:28.963Z,12.93
2023-07-25T10:26:25.759Z,13.07
2023-07-25T10:28:54.316Z,12.02
2023-07-25T10:31:26.061Z,11.77
2023-07-25T10:33:57.500Z,13.17
2023-07-25T10:36:25.444Z,14.40
2023-07-25T10:38:54.587Z,12.43
2023-07-25T10:41:25.199Z,13.27
2023-07-25T10:43:58.259Z,13.18
2023-07-25T10:46:32.096Z,12.38
2023-07-25T10:49:04.259Z,13.20
2023-07-25T10:51:53.385Z,13.18
2023-07-25T10:54:22.826Z,13.18
2023-07-25T10:57:08.753Z,13.13
2023-07-25T10:59:56.195Z,11.38
2023-07-25T11:02:50.394Z,12.57
2023-07-25T11:05:22.610Z,10.75
2023-07-25T11:07:55.342Z,11.88
2023-07-25T11:10:26.238Z,10.63
2023-07-25T11:12:55.467Z,10.15
2023-07-25T11:15:36.475Z,11.57
2023-07-25T11:18:10.944Z,9.48
2023-07-25T11:20:38.554Z,10.38
2023-07-25T11:23:06.719Z,10.55
2023-07-25T11:25:34.396Z,11.18
2023-07-25T11:28:02.119Z,11.10
2023-07-25T11:30:29.770Z,9.45
2023-07-25T11:32:57.537Z,10.25
2023-07-25T11:35:31.042Z,10.75
2023-07-25T11:38:04.183Z,9.77
2023-07-25T11:40:31.948Z,11.70
2023-07-25T11:42:59.809Z,9.52
2023-07-25T11:45:27.661Z,14.25
2023-07-25T11:47:56.037Z,14.27
2023-07-25T11:50:29.407Z,16.65
2023-07-25T11:52:59.348Z,13.38
2023-07-25T11:55:28.462Z,15.05
2023-07-25T11:57:56.888Z,14.07
2023-07-25T12:00:25.462Z,14.63
2023-07-25T12:02:53.056Z,14.82
2023-07-25T12:05:30.892Z,14.55
2023-07-25T12:08:05.507Z,14.90
2023-07-25T12:10:34.548Z,13.85
2023-07-25T12:13:05.265Z,16.42
2023-07-25T12:15:46.019Z,18.88
2023-07-25T12:18:32.432Z,15.30
2023-07-25T12:21:01.856Z,11.35
2023-07-25T12:23:33.052Z,16.13
2023-07-25T12:26:02.705Z,14.75
2023-07-25T12:28:40.063Z,16.98
2023-07-25T12:31:07.730Z,17.15
2023-07-25T12:33:35.990Z,14.82
2023-07-25T12:36:03.827Z,17.98
2023-07-25T12:38:31.520Z,15.32
2023-07-25T12:40:59.145Z,16.45
2023-07-25T12:43:26.702Z,17.95
2023-07-25T12:45:54.180Z,18.88
2023-07-25T12:48:21.702Z,19.58
2023-07-25T12:50:49.545Z,19.27
2023-07-25T12:53:17.061Z,18.05
2023-07-25T12:55:45.647Z,17.13
2023-07-25T12:58:13.251Z,18.15
2023-07-25T13:00:40.937Z,17.55
2023-07-25T13:03:10.535Z,17.10
2023-07-25T13:05:39.080Z,17.13
2023-07-25T13:08:07.243Z,16.67
2023-07-25T13:10:34.808Z,18.15
2023-07-25T13:13:03.159Z,20.55
2023-07-25T13:15:30.830Z,19.25
2023-07-25T13:17:58.580Z,19.33
2023-07-25T13:20:26.947Z,19.95
2023-07-25T13:22:55.036Z,18.27
2023-07-25T13:25:22.817Z,18.48
2023-07-25T13:27:50.450Z,17.88
2023-07-25T13:30:18.556Z,20.83
2023-07-25T13:32:48.935Z,18.35
2023-07-25T13:35:16.791Z,18.63
2023-07-25T13:37:44.479Z,17.77
2023-07-25T13:40:12.279Z,19.35
2023-07-25T13:42:40.193Z,18.88
2023-07-25T13:45:08.314Z,19.38
2023-07-25T13:47:35.986Z,21.90
2023-07-25T13:50:04.868Z,18.25
2023-07-25T13:52:32.690Z,20.02
2023-07-25T13:55:00.490Z,19.55
2023-07-25T13:57:32.791Z,20.60
2023-07-25T14:00:02.151Z,19.17
2023-07-25T14:02:32.734Z,17.63
2023-07-25T14:05:00.514Z,19.70
2023-07-25T14:07:28.231Z,21.13
2023-07-25T14:09:55.848Z,20.27
2023-07-25T14:12:23.562Z,19.73
2023-07-25T14:14:51.481Z,20.52
2023-07-25T14:17:24.107Z,18.15
2023-07-25T14:19:51.694Z,17.98
2023-07-25T14:22:25.515Z,19.17
2023-07-25T14:24:53.382Z,19.90
2023-07-25T14:27:22.794Z,19.90
2023-07-25T14:29:50.465Z,22.42
2023-07-25T14:32:18.138Z,23.13
2023-07-25T14:34:45.700Z,22.13
2023-07-25T14:37:14.019Z,24.08
2023-07-25T14:39:41.757Z,19.73
2023-07-25T14:42:09.592Z,20.25
2023-07-25T14:44:37.162Z,20.20
2023-07-25T14:47:05.616Z,22.08
2023-07-25T14:49:35.456Z,23.33
2023-07-25T14:52:04.766Z,21.77
2023-07-25T14:54:32.770Z,21.67
2023-07-25T14:57:03.406Z,22.70
2023-07-25T14:59:31.408Z,20.55
2023-07-25T15:02:01.988Z,23.33
2023-07-25T15:04:29.663Z,21.77
2023-07-25T15:06:57.373Z,20.15
2023-07-25T15:09:25.015Z,20.27
2023-07-25T15:11:52.558Z,20.45
2023-07-25T15:14:21.345Z,20.17
2023-07-25T15:16:50.428Z,22.65
2023-07-25T15:19:20.862Z,19.48
2023-07-25T15:21:48.574Z,21.38
2023-07-25T15:24:16.458Z,19.65
2023-07-25T15:26:44.092Z,20.27
2023-07-25T15:29:11.590Z,23.48
2023-07-25T15:31:39.299Z,20.42
2023-07-25T15:34:06.909Z,19.45
2023-07-25T15:36:34.596Z,20.25
2023-07-25T15:39:02.169Z,20.77
2023-07-25T15:41:30.229Z,19.42
2023-07-25T15:43:58.032Z,22.08
2023-07-25T15:46:25.650Z,21.27
2023-07-25T15:48:53.236Z,21.48
2023-07-25T15:51:21.058Z,22.75
2023-07-25T15:53:51.178Z,22.75
2023-07-25T15:56:19.079Z,20.23
2023-07-25T15:58:48.658Z,20.75
2023-07-25T16:01:16.286Z,24.40
2023-07-25T16:03:46.446Z,21.13
2023-07-25T16:06:14.533Z,23.42
2023-07-25T16:08:42.177Z,21.15
2023-07-25T16:11:09.839Z,20.75
2023-07-25T16:13:40.934Z,22.10
2023-07-25T16:16:08.629Z,20.33
2023-07-25T16:18:36.199Z,21.05
2023-07-25T16:21:04.017Z,19.30
2023-07-25T16:23:31.605Z,21.00
2023-07-25T16:26:00.780Z,20.23
2023-07-25T16:28:29.277Z,22.55
2023-07-25T16:31:11.561Z,20.90
2023-07-25T16:33:44.348Z,22.05
2023-07-25T16:36:11.983Z,20.08
2023-07-25T16:38:40.781Z,22.95
2023-07-25T16:41:08.421Z,22.08
2023-07-25T16:43:37.721Z,21.42
2023-07-25T16:46:05.444Z,23.85
2023-07-25T16:48:33.080Z,24.55
2023-07-25T16:51:00.660Z,22.27
2023-07-25T16:53:28.780Z,19.15
2023-07-25T16:55:56.661Z,22.38
2023-07-25T16:58:24.202Z,19.67
2023-07-25T17:00:53.396Z,20.30
2023-07-25T17:03:21.036Z,20.30
2023-07-25T17:05:48.927Z,20.85
2023-07-25T17:08:18.413Z,21.95
2023-07-25T17:10:45.939Z,21.15
2023-07-25T17:13:16.569Z,20.00
2023-07-25T17:15:44.918Z,19.90
2023-07-25T17:18:12.608Z,21.27
2023-07-25T17:20:40.231Z,21.88
2023-07-25T17:23:08.135Z,20.70
2023-07-25T17:25:38.286Z,20.52
2023-07-25T17:28:05.932Z,22.70
2023-07-25T17:30:33.499Z,21.98
2023-07-25T17:33:02.112Z,22.90
2023-07-25T17:35:37.671Z,25.13
2023-07-25T17:38:05.924Z,21.73
2023-07-25T17:40:33.697Z,22.05
2023-07-25T17:43:04.377Z,23.20
2023-07-25T17:45:32.333Z,22.58
2023-07-25T17:48:01.090Z,23.83
2023-07-25T17:50:28.893Z,23.30
2023-07-25T17:52:56.680Z,24.55
2023-07-25T17:55:24.300Z,22.88
2023-07-25T17:57:52.041Z,23.92
2023-07-25T18:00:19.791Z,24.92
2023-07-25T18:02:49.082Z,25.00
2023-07-25T18:05:16.722Z,26.15
2023-07-25T18:07:44.318Z,25.33
2023-07-25T18:10:11.985Z,22.65
2023-07-25T18:12:39.574Z,23.63
2023-07-25T18:15:07.584Z,22.63
2023-07-25T18:17:35.272Z,22.00
2023-07-25T18:20:03.835Z,24.02
2023-07-25T18:22:33.252Z,22.95
2023-07-25T18:25:00.986Z,24.42
2023-07-25T18:27:28.592Z,25.75
2023-07-25T18:29:56.445Z,23.38
2023-07-25T18:32:27.048Z,23.00
2023-07-25T18:34:54.804Z,28.05
2023-07-25T18:37:22.299Z,21.15
2023-07-25T18:39:49.957Z,26.50
2023-07-25T18:42:17.557Z,24.85
2023-07-25T18:44:45.154Z,26.05
2023-07-25T18:47:21.245Z,25.65
2023-07-25T18:49:53.032Z,27.75
2023-07-25T18:52:20.676Z,25.52
2023-07-25T18:54:48.255Z,26.75
2023-07-25T18:57:20.167Z,25.58
2023-07-25T18:59:48.489Z,25.08
2023-07-25T19:02:16.198Z,23.83
2023-07-25T19:04:44.227Z,27.30
2023-07-25T19:07:16.406Z,25.50
2023-07-25T19:09:44.493Z,30.23
2023-07-25T19:12:12.208Z,27.63
2023-07-25T19:14:43.276Z,28.17
2023-07-25T19:17:11.165Z,23.90
2023-07-25T19:19:39.494Z,25.73
2023-07-25T19:22:08.338Z,26.33
2023-07-25T19:24:36.058Z,26.35
2023-07-25T19:27:03.846Z,24.95
2023-07-25T19:29:31.363Z,26.48
2023-07-25T19:31:59.068Z,25.88
2023-07-25T19:34:26.909Z,25.58
2023-07-25T19:36:54.507Z,28.20
2023-07-25T19:39:22.164Z,25.50
2023-07-25T19:41:52.267Z,28.65
2023-07-25T19:44:23.576Z,26.83
2023-07-25T19:46:52.979Z,25.73
2023-07-25T19:49:20.856Z,26.65
2023-07-25T19:51:48.495Z,26.13
2023-07-25T19:54:16.347Z,22.98
2023-07-25T19:56:44.077Z,26.42
2023-07-25T19:59:11.641Z,25.13
2023-07-25T20:01:39.388Z,25.63
2023-07-25T20:04:07.121Z,26.65
2023-07-25T20:06:35.869Z,28.40
2023-07-25T20:09:03.392Z,25.50
2023-07-25T20:11:31.079Z,26.88
2023-07-25T20:13:58.809Z,24.30
2023-07-25T20:16:29.828Z,27.20
2023-07-25T20:18:57.546Z,27.80
2023-07-25T20:21:25.175Z,25.60
2023-07-25T20:23:55.844Z,27.73
2023-07-25T20:26:23.410Z,27.23
2023-07-25T20:28:55.253Z,25.50
2023-07-25T20:31:22.764Z,26.48
2023-07-25T20:33:50.294Z,23.30
2023-07-25T20:36:18.454Z,29.52
2023-07-25T20:38:48.398Z,27.98
2023-07-25T20:41:16.015Z,26.00
2023-07-25T20:43:43.557Z,26.58
2023-07-25T20:46:11.348Z,28.42
2023-07-25T20:48:38.901Z,27.33
2023-07-25T20:51:06.874Z,29.45
2023-07-25T20:53:34.435Z,26.40
2023-07-25T20:56:03.125Z,26.25
2023-07-25T20:58:30.818Z,30.17
2023-07-25T21:00:58.441Z,27.55
2023-07-25T21:03:26.268Z,25.75
2023-07-25T21:05:53.974Z,28.58
2023-07-25T21:08:21.500Z,25.48
2023-07-25T21:10:50.827Z,26.58
2023-07-25T21:13:18.475Z,26.42
2023-07-25T21:15:46.056Z,24.10
2023-07-25T21:18:14.355Z,24.75
2023-07-25T21:20:42.615Z,25.77
2023-07-25T21:23:10.463Z,24.52
2023-07-25T21:25:41.383Z,25.60
2023-07-25T21:28:08.988Z,26.60
2023-07-25T21:30:36.594Z,27.58
2023-07-25T21:33:04.227Z,25.13
2023-07-25T21:35:31.882Z,23.77
2023-07-25T21:37:59.642Z,25.45
2023-07-25T21:40:27.328Z,22.70
2023-07-25T21:42:54.925Z,25.90
2023-07-25T21:45:22.504Z,22.67
2023-07-25T21:47:50.189Z,23.95
2023-07-25T21:50:17.777Z,26.10
2023-07-25T21:52:45.566Z,23.50
2023-07-25T21:55:13.438Z,21.65
2023-07-25T21:57:41.016Z,24.13
2023-07-25T22:00:09.014Z,23.30
2023-07-25T22:02:36.663Z,26.77
2023-07-25T22:05:05.101Z,27.17
2023-07-25T22:07:32.660Z,27.73
2023-07-25T22:10:03.063Z,26.20
2023-07-25T22:12:31.369Z,30.63
2023-07-25T22:14:59.095Z,33.05
2023-07-25T22:17:26.733Z,33.95
2023-07-25T22:19:54.684Z,32.65
2023-07-25T22:22:22.452Z,31.40
2023-07-25T22:24:49.984Z,34.88
2023-07-25T22:27:17.860Z,35.17
2023-07-25T22:29:48.420Z,36.78
2023-07-25T22:32:16.002Z,38.15
2023-07-25T22:34:43.556Z,41.58
2023-07-25T22:37:11.097Z,38.58
2023-07-25T22:39:38.938Z,39.13
2023-07-25T22:42:06.678Z,40.90
2023-07-25T22:44:34.359Z,41.15
2023-07-25T22:47:01.999Z,39.15
2023-07-25T22:49:29.582Z,43.45
2023-07-25T22:51:57.212Z,41.28
2023-07-25T22:54:24.711Z,39.75
2023-07-25T22:56:52.468Z,42.10
2023-07-25T22:59:20.193Z,37.88
2023-07-25T23:01:47.795Z,42.47
2023-07-25T23:04:15.476Z,39.97
2023-07-25T23:06:43.026Z,38.08
2023-07-25T23:09:10.574Z,37.15
2023-07-25T23:11:38.124Z,39.55
2023-07-25T23:14:05.816Z,34.35
2023-07-25T23:16:33.764Z,34.42
2023-07-25T23:19:01.650Z,37.47
2023-07-25T23:21:29.218Z,35.60
2023-07-25T23:23:56.993Z,37.03
2023-07-25T23:26:24.604Z,36.20
2023-07-25T23:28:52.146Z,33.40
2023-07-25T23:31:19.782Z,36.55
2023-07-25T23:33:47.475Z,36.40
2023-07-25T23:36:15.626Z,35.30
2023-07-25T23:38:43.476Z,35.30
2023-07-25T23:41:11.129Z,36.75
2023-07-25T23:43:38.675Z,36.58
2023-07-25T23:46:06.165Z,36.50
2023-07-25T23:48:37.406Z,37.50
2023-07-25T23:51:04.959Z,39.50
2023-07-25T23:53:32.530Z,37.03
2023-07-25T23:56:00.391Z,36.53
2023-07-25T23:58:28.158Z,37.60
